sensor_id;sensor_type;location;lat;lon;timestamp;temperature;humidity
8099;DHT22;4092;47.876;9.372;2023-11-19T00:02:08;5.00;99.90
8099;DHT22;4092;47.876;9.372;2023-11-19T00:04:36;5.00;99.90
8099;DHT22;4092;47.876;9.372;2023-11-19T00:07:04;5.00;99.90
8099;DHT22;4092;47.876;9.372;2023-11-19T00:09:32;5.10;99.90
8099;DHT22;4092;47.876;9.372;2023-11-19T00:12:03;5.10;99.90
8099;DHT22;4092;47.876;9.372;2023-11-19T00:14:31;5.10;99.90
8099;DHT22;4092;47.876;9.372;2023-11-19T00:16:58;5.10;99.90
8099;DHT22;4092;47.876;9.372;2023-11-19T00:19:25;5.10;99.90
8099;DHT22;4092;47.876;9.372;2023-11-19T00:21:53;5.10;99.90
8099;DHT22;4092;47.876;9.372;2023-11-19T00:24:20;5.10;99.90
8099;DHT22;4092;47.876;9.372;2023-11-19T00:26:47;5.10;99.90
8099;DHT22;4092;47.876;9.372;2023-11-19T00:29:15;5.10;99.90
8099;DHT22;4092;47.876;9.372;2023-11-19T00:31:45;5.10;99.90
8099;DHT22;4092;47.876;9.372;2023-11-19T00:34:12;5.10;99.90
8099;DHT22;4092;47.876;9.372;2023-11-19T00:36:39;5.10;99.90
8099;DHT22;4092;47.876;9.372;2023-11-19T00:39:06;5.10;99.90
8099;DHT22;4092;47.876;9.372;2023-11-19T00:41:33;5.10;99.90
8099;DHT22;4092;47.876;9.372;2023-11-19T00:44:00;5.20;99.90
8099;DHT22;4092;47.876;9.372;2023-11-19T00:46:27;5.20;99.90
8099;DHT22;4092;47.876;9.372;2023-11-19T00:48:55;5.20;99.90
8099;DHT22;4092;47.876;9.372;2023-11-19T00:51:24;5.30;99.90
8099;DHT22;4092;47.876;9.372;2023-11-19T00:53:52;5.30;99.90
8099;DHT22;4092;47.876;9.372;2023-11-19T00:56:19;5.30;99.90
8099;DHT22;4092;47.876;9.372;2023-11-19T00:58:46;5.30;99.90
8099;DHT22;4092;47.876;9.372;2023-11-19T01:01:13;5.30;99.90
8099;DHT22;4092;47.876;9.372;2023-11-19T01:03:40;5.30;99.90
8099;DHT22;4092;47.876;9.372;2023-11-19T01:06:08;5.30;99.90
8099;DHT22;4092;47.876;9.372;2023-11-19T01:08:35;5.30;99.90
8099;DHT22;4092;47.876;9.372;2023-11-19T01:11:03;5.40;99.90
8099;DHT22;4092;47.876;9.372;2023-11-19T01:13:30;5.40;99.90
8099;DHT22;4092;47.876;9.372;2023-11-19T01:15:57;5.40;99.90
8099;DHT22;4092;47.876;9.372;2023-11-19T01:18:24;5.30;99.90
8099;DHT22;4092;47.876;9.372;2023-11-19T01:20:51;5.40;99.90
8099;DHT22;4092;47.876;9.372;2023-11-19T01:23:20;5.40;99.90
8099;DHT22;4092;47.876;9.372;2023-11-19T01:25:47;5.40;99.90
8099;DHT22;4092;47.876;9.372;2023-11-19T01:28:14;5.40;99.90
8099;DHT22;4092;47.876;9.372;2023-11-19T01:30:41;5.40;99.90
8099;DHT22;4092;47.876;9.372;2023-11-19T01:33:08;5.40;99.90
8099;DHT22;4092;47.876;9.372;2023-11-19T01:35:35;5.50;99.90
8099;DHT22;4092;47.876;9.372;2023-11-19T01:38:02;5.50;99.90
8099;DHT22;4092;47.876;9.372;2023-11-19T01:40:30;5.50;99.90
8099;DHT22;4092;47.876;9.372;2023-11-19T01:42:58;5.50;99.90
8099;DHT22;4092;47.876;9.372;2023-11-19T01:45:28;5.50;99.90
8099;DHT22;4092;47.876;9.372;2023-11-19T01:47:56;5.50;99.90
8099;DHT22;4092;47.876;9.372;2023-11-19T01:50:24;5.50;99.90
8099;DHT22;4092;47.876;9.372;2023-11-19T01:52:52;5.50;99.90
8099;DHT22;4092;47.876;9.372;2023-11-19T01:55:20;5.50;99.90
8099;DHT22;4092;47.876;9.372;2023-11-19T01:57:49;5.50;99.90
8099;DHT22;4092;47.876;9.372;2023-11-19T02:00:18;5.50;99.90
8099;DHT22;4092;47.876;9.372;2023-11-19T02:02:46;5.50;99.90
8099;DHT22;4092;47.876;9.372;2023-11-19T02:05:14;5.60;99.90
8099;DHT22;4092;47.876;9.372;2023-11-19T02:07:42;5.60;99.90
8099;DHT22;4092;47.876;9.372;2023-11-19T02:10:10;5.60;99.90
8099;DHT22;4092;47.876;9.372;2023-11-19T02:12:40;5.70;99.90
8099;DHT22;4092;47.876;9.372;2023-11-19T02:15:11;5.60;99.90
8099;DHT22;4092;47.876;9.372;2023-11-19T02:17:38;5.70;99.90
8099;DHT22;4092;47.876;9.372;2023-11-19T02:20:06;5.80;99.90
8099;DHT22;4092;47.876;9.372;2023-11-19T02:22:34;5.80;99.90
8099;DHT22;4092;47.876;9.372;2023-11-19T02:25:06;5.80;99.90
8099;DHT22;4092;47.876;9.372;2023-11-19T02:27:49;5.80;99.90
8099;DHT22;4092;47.876;9.372;2023-11-19T02:30:21;5.80;99.90
8099;DHT22;4092;47.876;9.372;2023-11-19T02:32:52;5.80;99.90
8099;DHT22;4092;47.876;9.372;2023-11-19T02:35:19;5.80;99.90
8099;DHT22;4092;47.876;9.372;2023-11-19T02:37:48;5.80;99.90
8099;DHT22;4092;47.876;9.372;2023-11-19T02:40:15;5.90;99.90
8099;DHT22;4092;47.876;9.372;2023-11-19T02:42:43;5.90;99.90
8099;DHT22;4092;47.876;9.372;2023-11-19T02:45:11;5.90;99.90
8099;DHT22;4092;47.876;9.372;2023-11-19T02:47:40;5.90;99.90
8099;DHT22;4092;47.876;9.372;2023-11-19T02:50:08;5.90;99.90
8099;DHT22;4092;47.876;9.372;2023-11-19T02:52:40;5.90;99.90
8099;DHT22;4092;47.876;9.372;2023-11-19T02:55:08;5.90;99.90
8099;DHT22;4092;47.876;9.372;2023-11-19T02:57:38;5.90;99.90
8099;DHT22;4092;47.876;9.372;2023-11-19T03:00:07;5.90;99.90
8099;DHT22;4092;47.876;9.372;2023-11-19T03:02:40;5.90;99.90
8099;DHT22;4092;47.876;9.372;2023-11-19T03:05:11;6.00;99.90
8099;DHT22;4092;47.876;9.372;2023-11-19T03:07:40;6.00;99.90
8099;DHT22;4092;47.876;9.372;2023-11-19T03:10:09;6.00;99.90
8099;DHT22;4092;47.876;9.372;2023-11-19T03:12:39;6.00;99.90
8099;DHT22;4092;47.876;9.372;2023-11-19T03:15:07;6.00;99.90
8099;DHT22;4092;47.876;9.372;2023-11-19T03:17:36;6.00;99.90
8099;DHT22;4092;47.876;9.372;2023-11-19T03:20:07;6.00;99.90
8099;DHT22;4092;47.876;9.372;2023-11-19T03:22:36;6.00;99.90
8099;DHT22;4092;47.876;9.372;2023-11-19T03:25:04;6.10;99.90
8099;DHT22;4092;47.876;9.372;2023-11-19T03:27:33;6.10;99.90
8099;DHT22;4092;47.876;9.372;2023-11-19T03:30:01;6.10;99.90
8099;DHT22;4092;47.876;9.372;2023-11-19T03:32:30;6.10;99.90
8099;DHT22;4092;47.876;9.372;2023-11-19T03:34:58;6.10;99.90
8099;DHT22;4092;47.876;9.372;2023-11-19T03:37:27;6.10;99.90
8099;DHT22;4092;47.876;9.372;2023-11-19T03:39:58;6.20;99.90
8099;DHT22;4092;47.876;9.372;2023-11-19T03:42:25;6.10;99.90
8099;DHT22;4092;47.876;9.372;2023-11-19T03:44:53;6.10;99.90
8099;DHT22;4092;47.876;9.372;2023-11-19T03:47:20;6.10;99.90
8099;DHT22;4092;47.876;9.372;2023-11-19T03:49:48;6.10;99.90
8099;DHT22;4092;47.876;9.372;2023-11-19T03:52:15;6.20;99.90
8099;DHT22;4092;47.876;9.372;2023-11-19T03:54:44;6.20;99.90
8099;DHT22;4092;47.876;9.372;2023-11-19T03:57:12;6.20;99.90
8099;DHT22;4092;47.876;9.372;2023-11-19T03:59:39;6.30;99.90
8099;DHT22;4092;47.876;9.372;2023-11-19T04:02:06;6.30;99.90
8099;DHT22;4092;47.876;9.372;2023-11-19T04:04:33;6.30;99.90
8099;DHT22;4092;47.876;9.372;2023-11-19T04:07:01;6.30;99.90
8099;DHT22;4092;47.876;9.372;2023-11-19T04:09:28;6.30;99.90
8099;DHT22;4092;47.876;9.372;2023-11-19T04:11:57;6.30;99.90
8099;DHT22;4092;47.876;9.372;2023-11-19T04:14:24;6.30;99.90
8099;DHT22;4092;47.876;9.372;2023-11-19T04:16:52;6.30;99.90
8099;DHT22;4092;47.876;9.372;2023-11-19T04:19:19;6.30;99.90
8099;DHT22;4092;47.876;9.372;2023-11-19T04:21:46;6.30;99.90
8099;DHT22;4092;47.876;9.372;2023-11-19T04:24:13;6.40;99.90
8099;DHT22;4092;47.876;9.372;2023-11-19T04:26:41;6.40;99.90
8099;DHT22;4092;47.876;9.372;2023-11-19T04:29:12;6.40;99.90
8099;DHT22;4092;47.876;9.372;2023-11-19T04:31:40;6.40;99.90
8099;DHT22;4092;47.876;9.372;2023-11-19T04:34:07;6.40;99.90
8099;DHT22;4092;47.876;9.372;2023-11-19T04:36:34;6.50;99.90
8099;DHT22;4092;47.876;9.372;2023-11-19T04:39:03;6.50;99.90
8099;DHT22;4092;47.876;9.372;2023-11-19T04:41:34;6.50;99.90
8099;DHT22;4092;47.876;9.372;2023-11-19T04:44:01;6.50;99.90
8099;DHT22;4092;47.876;9.372;2023-11-19T04:46:29;6.50;99.90
8099;DHT22;4092;47.876;9.372;2023-11-19T04:48:56;6.50;99.90
8099;DHT22;4092;47.876;9.372;2023-11-19T04:51:23;6.60;99.90
8099;DHT22;4092;47.876;9.372;2023-11-19T04:53:50;6.50;99.90
8099;DHT22;4092;47.876;9.372;2023-11-19T04:56:17;6.50;99.90
8099;DHT22;4092;47.876;9.372;2023-11-19T04:58:45;6.60;99.90
8099;DHT22;4092;47.876;9.372;2023-11-19T05:01:14;6.60;99.90
8099;DHT22;4092;47.876;9.372;2023-11-19T05:03:44;6.70;99.90
8099;DHT22;4092;47.876;9.372;2023-11-19T05:06:11;6.70;99.90
8099;DHT22;4092;47.876;9.372;2023-11-19T05:08:38;6.70;99.90
8099;DHT22;4092;47.876;9.372;2023-11-19T05:11:05;6.70;99.90
8099;DHT22;4092;47.876;9.372;2023-11-19T05:13:32;6.80;99.90
8099;DHT22;4092;47.876;9.372;2023-11-19T05:15:59;6.80;99.90
8099;DHT22;4092;47.876;9.372;2023-11-19T05:18:26;6.90;99.90
8099;DHT22;4092;47.876;9.372;2023-11-19T05:20:55;6.90;99.90
8099;DHT22;4092;47.876;9.372;2023-11-19T05:23:22;6.90;99.90
8099;DHT22;4092;47.876;9.372;2023-11-19T05:25:48;7.00;99.90
8099;DHT22;4092;47.876;9.372;2023-11-19T05:28:15;7.00;99.90
8099;DHT22;4092;47.876;9.372;2023-11-19T05:30:43;7.10;99.90
8099;DHT22;4092;47.876;9.372;2023-11-19T05:33:10;7.10;99.90
8099;DHT22;4092;47.876;9.372;2023-11-19T05:35:37;7.10;99.90
8099;DHT22;4092;47.876;9.372;2023-11-19T05:38:06;7.20;99.90
8099;DHT22;4092;47.876;9.372;2023-11-19T05:40:33;7.20;99.90
8099;DHT22;4092;47.876;9.372;2023-11-19T05:43:00;7.20;99.90
8099;DHT22;4092;47.876;9.372;2023-11-19T05:45:27;7.30;99.90
8099;DHT22;4092;47.876;9.372;2023-11-19T05:47:53;7.40;99.90
8099;DHT22;4092;47.876;9.372;2023-11-19T05:50:21;7.40;99.90
8099;DHT22;4092;47.876;9.372;2023-11-19T05:52:48;7.40;99.90
8099;DHT22;4092;47.876;9.372;2023-11-19T05:55:17;7.40;99.90
8099;DHT22;4092;47.876;9.372;2023-11-19T05:57:46;7.60;99.90
8099;DHT22;4092;47.876;9.372;2023-11-19T06:00:13;7.60;99.90
8099;DHT22;4092;47.876;9.372;2023-11-19T06:02:41;7.60;99.90
8099;DHT22;4092;47.876;9.372;2023-11-19T06:05:08;7.70;99.90
8099;DHT22;4092;47.876;9.372;2023-11-19T06:07:35;7.70;99.90
8099;DHT22;4092;47.876;9.372;2023-11-19T06:10:05;7.70;99.90
8099;DHT22;4092;47.876;9.372;2023-11-19T06:12:34;7.70;99.90
8099;DHT22;4092;47.876;9.372;2023-11-19T06:15:04;7.70;99.90
8099;DHT22;4092;47.876;9.372;2023-11-19T06:17:33;7.80;99.90
8099;DHT22;4092;47.876;9.372;2023-11-19T06:20:01;7.80;99.90
8099;DHT22;4092;47.876;9.372;2023-11-19T06:22:29;7.90;99.90
8099;DHT22;4092;47.876;9.372;2023-11-19T06:24:56;7.80;99.90
8099;DHT22;4092;47.876;9.372;2023-11-19T06:27:25;7.90;99.90
8099;DHT22;4092;47.876;9.372;2023-11-19T06:29:54;7.90;99.90
8099;DHT22;4092;47.876;9.372;2023-11-19T06:32:21;8.00;99.90
8099;DHT22;4092;47.876;9.372;2023-11-19T06:34:48;8.00;99.90
8099;DHT22;4092;47.876;9.372;2023-11-19T06:37:15;8.00;99.90
8099;DHT22;4092;47.876;9.372;2023-11-19T06:39:42;8.00;99.90
8099;DHT22;4092;47.876;9.372;2023-11-19T06:42:09;8.00;99.90
8099;DHT22;4092;47.876;9.372;2023-11-19T06:44:36;8.00;99.90
8099;DHT22;4092;47.876;9.372;2023-11-19T06:47:05;8.10;99.90
8099;DHT22;4092;47.876;9.372;2023-11-19T06:49:32;8.10;99.90
8099;DHT22;4092;47.876;9.372;2023-11-19T06:52:00;8.20;99.90
8099;DHT22;4092;47.876;9.372;2023-11-19T06:54:27;8.30;99.90
8099;DHT22;4092;47.876;9.372;2023-11-19T06:56:54;8.30;99.90
8099;DHT22;4092;47.876;9.372;2023-11-19T06:59:22;8.20;99.90
8099;DHT22;4092;47.876;9.372;2023-11-19T07:01:49;8.20;99.90
8099;DHT22;4092;47.876;9.372;2023-11-19T07:04:17;8.20;99.90
8099;DHT22;4092;47.876;9.372;2023-11-19T07:06:45;8.10;99.90
8099;DHT22;4092;47.876;9.372;2023-11-19T07:09:13;8.10;99.90
8099;DHT22;4092;47.876;9.372;2023-11-19T07:11:41;8.00;99.90
8099;DHT22;4092;47.876;9.372;2023-11-19T07:14:09;8.00;99.90
8099;DHT22;4092;47.876;9.372;2023-11-19T07:16:37;8.10;99.90
8099;DHT22;4092;47.876;9.372;2023-11-19T07:19:05;8.00;99.90
8099;DHT22;4092;47.876;9.372;2023-11-19T07:21:33;8.00;99.90
8099;DHT22;4092;47.876;9.372;2023-11-19T07:24:01;8.00;99.90
8099;DHT22;4092;47.876;9.372;2023-11-19T07:26:28;8.10;99.90
8099;DHT22;4092;47.876;9.372;2023-11-19T07:28:55;8.10;99.90
8099;DHT22;4092;47.876;9.372;2023-11-19T07:31:23;8.10;99.90
8099;DHT22;4092;47.876;9.372;2023-11-19T07:33:51;8.10;99.90
8099;DHT22;4092;47.876;9.372;2023-11-19T07:36:19;8.10;99.90
8099;DHT22;4092;47.876;9.372;2023-11-19T07:38:48;8.10;99.90
8099;DHT22;4092;47.876;9.372;2023-11-19T07:41:17;8.20;99.90
8099;DHT22;4092;47.876;9.372;2023-11-19T07:43:45;8.20;99.90
8099;DHT22;4092;47.876;9.372;2023-11-19T07:46:13;8.30;99.90
8099;DHT22;4092;47.876;9.372;2023-11-19T07:48:40;8.30;99.90
8099;DHT22;4092;47.876;9.372;2023-11-19T07:51:08;8.30;99.90
8099;DHT22;4092;47.876;9.372;2023-11-19T07:53:35;8.40;99.90
8099;DHT22;4092;47.876;9.372;2023-11-19T07:56:07;8.40;99.90
8099;DHT22;4092;47.876;9.372;2023-11-19T07:58:34;8.40;99.90
8099;DHT22;4092;47.876;9.372;2023-11-19T08:01:02;8.40;99.90
8099;DHT22;4092;47.876;9.372;2023-11-19T08:03:29;8.40;99.90
8099;DHT22;4092;47.876;9.372;2023-11-19T08:05:56;8.50;99.90
8099;DHT22;4092;47.876;9.372;2023-11-19T08:08:23;8.50;99.90
8099;DHT22;4092;47.876;9.372;2023-11-19T08:10:50;8.50;99.90
8099;DHT22;4092;47.876;9.372;2023-11-19T08:13:20;8.60;99.90
8099;DHT22;4092;47.876;9.372;2023-11-19T08:15:47;8.60;99.90
8099;DHT22;4092;47.876;9.372;2023-11-19T08:18:14;8.60;99.90
8099;DHT22;4092;47.876;9.372;2023-11-19T08:20:41;8.60;99.90
8099;DHT22;4092;47.876;9.372;2023-11-19T08:23:10;8.70;99.90
8099;DHT22;4092;47.876;9.372;2023-11-19T08:25:37;8.70;99.90
8099;DHT22;4092;47.876;9.372;2023-11-19T08:28:04;8.70;99.90
8099;DHT22;4092;47.876;9.372;2023-11-19T08:30:33;8.80;99.90
8099;DHT22;4092;47.876;9.372;2023-11-19T08:33:00;8.80;99.90
8099;DHT22;4092;47.876;9.372;2023-11-19T08:35:28;8.80;99.90
8099;DHT22;4092;47.876;9.372;2023-11-19T08:37:55;8.90;99.90
8099;DHT22;4092;47.876;9.372;2023-11-19T08:40:23;8.90;99.90
8099;DHT22;4092;47.876;9.372;2023-11-19T08:42:51;8.90;99.90
8099;DHT22;4092;47.876;9.372;2023-11-19T08:45:18;9.00;99.90
8099;DHT22;4092;47.876;9.372;2023-11-19T08:47:47;8.90;99.90
8099;DHT22;4092;47.876;9.372;2023-11-19T08:50:14;9.00;99.90
8099;DHT22;4092;47.876;9.372;2023-11-19T08:52:41;9.00;99.90
8099;DHT22;4092;47.876;9.372;2023-11-19T08:55:08;9.10;99.90
8099;DHT22;4092;47.876;9.372;2023-11-19T08:57:37;9.10;99.90
8099;DHT22;4092;47.876;9.372;2023-11-19T09:00:05;9.20;99.90
8099;DHT22;4092;47.876;9.372;2023-11-19T09:02:33;9.20;99.90
8099;DHT22;4092;47.876;9.372;2023-11-19T09:05:02;9.20;99.90
8099;DHT22;4092;47.876;9.372;2023-11-19T09:07:29;9.30;99.90
8099;DHT22;4092;47.876;9.372;2023-11-19T09:09:56;9.30;99.90
8099;DHT22;4092;47.876;9.372;2023-11-19T09:12:23;9.30;99.90
8099;DHT22;4092;47.876;9.372;2023-11-19T09:14:51;9.30;99.90
8099;DHT22;4092;47.876;9.372;2023-11-19T09:17:19;9.40;99.90
8099;DHT22;4092;47.876;9.372;2023-11-19T09:19:46;9.40;99.90
8099;DHT22;4092;47.876;9.372;2023-11-19T09:22:15;9.40;99.90
8099;DHT22;4092;47.876;9.372;2023-11-19T09:24:42;9.40;99.90
8099;DHT22;4092;47.876;9.372;2023-11-19T09:27:10;9.50;99.90
8099;DHT22;4092;47.876;9.372;2023-11-19T09:29:37;9.50;99.90
8099;DHT22;4092;47.876;9.372;2023-11-19T09:32:05;9.50;99.90
8099;DHT22;4092;47.876;9.372;2023-11-19T09:34:33;9.60;99.90
8099;DHT22;4092;47.876;9.372;2023-11-19T09:37:01;9.60;99.90
8099;DHT22;4092;47.876;9.372;2023-11-19T09:39:30;9.70;99.90
8099;DHT22;4092;47.876;9.372;2023-11-19T09:41:57;9.70;99.90
8099;DHT22;4092;47.876;9.372;2023-11-19T09:44:24;9.70;99.90
8099;DHT22;4092;47.876;9.372;2023-11-19T09:46:52;9.70;99.90
8099;DHT22;4092;47.876;9.372;2023-11-19T09:49:21;9.70;99.90
8099;DHT22;4092;47.876;9.372;2023-11-19T09:51:52;9.80;99.90
8099;DHT22;4092;47.876;9.372;2023-11-19T09:54:19;9.80;99.90
8099;DHT22;4092;47.876;9.372;2023-11-19T09:56:48;9.80;99.90
8099;DHT22;4092;47.876;9.372;2023-11-19T09:59:15;9.80;99.90
8099;DHT22;4092;47.876;9.372;2023-11-19T10:01:43;9.90;99.90
8099;DHT22;4092;47.876;9.372;2023-11-19T10:04:14;9.90;99.90
8099;DHT22;4092;47.876;9.372;2023-11-19T10:06:42;9.90;99.90
8099;DHT22;4092;47.876;9.372;2023-11-19T10:09:11;10.00;99.90
8099;DHT22;4092;47.876;9.372;2023-11-19T10:11:40;10.00;99.90
8099;DHT22;4092;47.876;9.372;2023-11-19T10:14:09;10.00;99.90
8099;DHT22;4092;47.876;9.372;2023-11-19T10:16:36;10.10;99.90
8099;DHT22;4092;47.876;9.372;2023-11-19T10:19:04;10.10;99.90
8099;DHT22;4092;47.876;9.372;2023-11-19T10:21:33;10.10;99.90
8099;DHT22;4092;47.876;9.372;2023-11-19T10:24:00;10.10;99.90
8099;DHT22;4092;47.876;9.372;2023-11-19T10:26:29;10.10;99.90
8099;DHT22;4092;47.876;9.372;2023-11-19T10:28:56;10.20;99.90
8099;DHT22;4092;47.876;9.372;2023-11-19T10:31:25;10.20;99.90
8099;DHT22;4092;47.876;9.372;2023-11-19T10:33:53;10.20;99.90
8099;DHT22;4092;47.876;9.372;2023-11-19T10:36:20;10.30;99.90
8099;DHT22;4092;47.876;9.372;2023-11-19T10:38:53;10.20;99.90
8099;DHT22;4092;47.876;9.372;2023-11-19T10:41:27;10.20;99.90
8099;DHT22;4092;47.876;9.372;2023-11-19T10:43:55;10.20;99.90
8099;DHT22;4092;47.876;9.372;2023-11-19T10:46:22;10.20;99.90
8099;DHT22;4092;47.876;9.372;2023-11-19T10:48:50;10.20;99.90
8099;DHT22;4092;47.876;9.372;2023-11-19T10:51:19;10.30;99.90
8099;DHT22;4092;47.876;9.372;2023-11-19T10:53:49;10.30;99.90
8099;DHT22;4092;47.876;9.372;2023-11-19T10:56:17;10.40;99.90
8099;DHT22;4092;47.876;9.372;2023-11-19T10:58:46;10.40;99.90
8099;DHT22;4092;47.876;9.372;2023-11-19T11:01:19;10.40;99.90
8099;DHT22;4092;47.876;9.372;2023-11-19T11:03:47;10.50;99.90
8099;DHT22;4092;47.876;9.372;2023-11-19T11:06:18;10.50;99.90
8099;DHT22;4092;47.876;9.372;2023-11-19T11:08:46;10.50;99.90
8099;DHT22;4092;47.876;9.372;2023-11-19T11:11:15;10.50;99.90
8099;DHT22;4092;47.876;9.372;2023-11-19T11:13:43;10.60;99.90
8099;DHT22;4092;47.876;9.372;2023-11-19T11:16:11;10.50;99.90
8099;DHT22;4092;47.876;9.372;2023-11-19T11:18:39;10.50;99.90
8099;DHT22;4092;47.876;9.372;2023-11-19T11:21:09;10.50;99.90
8099;DHT22;4092;47.876;9.372;2023-11-19T11:24:01;10.50;99.90
8099;DHT22;4092;47.876;9.372;2023-11-19T11:26:56;10.50;99.90
8099;DHT22;4092;47.876;9.372;2023-11-19T11:29:31;10.50;99.90
8099;DHT22;4092;47.876;9.372;2023-11-19T11:32:15;10.50;99.90
8099;DHT22;4092;47.876;9.372;2023-11-19T11:34:58;10.50;99.90
8099;DHT22;4092;47.876;9.372;2023-11-19T11:37:32;10.50;99.90
8099;DHT22;4092;47.876;9.372;2023-11-19T11:40:03;10.60;99.90
8099;DHT22;4092;47.876;9.372;2023-11-19T11:42:36;10.60;99.90
8099;DHT22;4092;47.876;9.372;2023-11-19T11:45:05;10.60;99.90
8099;DHT22;4092;47.876;9.372;2023-11-19T11:48:06;10.60;99.90
8099;DHT22;4092;47.876;9.372;2023-11-19T11:50:36;10.60;99.90
8099;DHT22;4092;47.876;9.372;2023-11-19T11:53:14;10.70;99.90
8099;DHT22;4092;47.876;9.372;2023-11-19T11:56:00;10.70;99.90
8099;DHT22;4092;47.876;9.372;2023-11-19T11:58:35;10.80;99.90
8099;DHT22;4092;47.876;9.372;2023-11-19T12:01:05;10.90;99.90
8099;DHT22;4092;47.876;9.372;2023-11-19T12:03:32;10.90;99.90
8099;DHT22;4092;47.876;9.372;2023-11-19T12:06:00;10.90;99.90
8099;DHT22;4092;47.876;9.372;2023-11-19T12:08:29;10.90;99.90
8099;DHT22;4092;47.876;9.372;2023-11-19T12:11:00;10.90;99.90
8099;DHT22;4092;47.876;9.372;2023-11-19T12:13:53;10.90;99.90
8099;DHT22;4092;47.876;9.372;2023-11-19T12:16:22;10.90;99.90
8099;DHT22;4092;47.876;9.372;2023-11-19T12:18:51;10.90;99.90
8099;DHT22;4092;47.876;9.372;2023-11-19T12:21:29;10.90;99.90
8099;DHT22;4092;47.876;9.372;2023-11-19T12:23:58;10.90;99.90
8099;DHT22;4092;47.876;9.372;2023-11-19T12:26:35;10.80;99.90
8099;DHT22;4092;47.876;9.372;2023-11-19T12:29:02;10.90;99.90
8099;DHT22;4092;47.876;9.372;2023-11-19T12:31:34;10.90;99.90
8099;DHT22;4092;47.876;9.372;2023-11-19T12:34:08;10.90;99.90
8099;DHT22;4092;47.876;9.372;2023-11-19T12:36:38;10.80;99.90
8099;DHT22;4092;47.876;9.372;2023-11-19T12:39:06;10.90;99.90
8099;DHT22;4092;47.876;9.372;2023-11-19T12:41:51;10.90;99.90
8099;DHT22;4092;47.876;9.372;2023-11-19T12:44:18;10.90;99.90
8099;DHT22;4092;47.876;9.372;2023-11-19T12:46:44;10.90;99.90
8099;DHT22;4092;47.876;9.372;2023-11-19T12:49:11;10.80;99.90
8099;DHT22;4092;47.876;9.372;2023-11-19T12:51:39;10.80;99.90
8099;DHT22;4092;47.876;9.372;2023-11-19T12:54:07;10.80;99.90
8099;DHT22;4092;47.876;9.372;2023-11-19T12:56:34;10.80;99.90
8099;DHT22;4092;47.876;9.372;2023-11-19T12:59:11;10.80;99.90
8099;DHT22;4092;47.876;9.372;2023-11-19T13:01:39;10.80;99.90
8099;DHT22;4092;47.876;9.372;2023-11-19T13:04:17;10.80;99.90
8099;DHT22;4092;47.876;9.372;2023-11-19T13:06:45;10.80;99.90
8099;DHT22;4092;47.876;9.372;2023-11-19T13:09:22;10.80;99.90
8099;DHT22;4092;47.876;9.372;2023-11-19T13:11:49;10.80;99.90
8099;DHT22;4092;47.876;9.372;2023-11-19T13:14:19;10.80;99.90
8099;DHT22;4092;47.876;9.372;2023-11-19T13:16:46;10.80;99.90
8099;DHT22;4092;47.876;9.372;2023-11-19T13:19:13;10.90;99.90
8099;DHT22;4092;47.876;9.372;2023-11-19T13:21:42;10.90;99.90
8099;DHT22;4092;47.876;9.372;2023-11-19T13:24:11;10.90;99.90
8099;DHT22;4092;47.876;9.372;2023-11-19T13:26:38;10.90;99.90
8099;DHT22;4092;47.876;9.372;2023-11-19T13:29:05;10.90;99.90
8099;DHT22;4092;47.876;9.372;2023-11-19T13:31:34;10.90;99.90
8099;DHT22;4092;47.876;9.372;2023-11-19T13:34:01;10.80;99.90
8099;DHT22;4092;47.876;9.372;2023-11-19T13:36:29;10.90;99.90
8099;DHT22;4092;47.876;9.372;2023-11-19T13:38:56;10.80;99.90
8099;DHT22;4092;47.876;9.372;2023-11-19T13:41:25;10.80;99.90
8099;DHT22;4092;47.876;9.372;2023-11-19T13:43:52;10.80;99.90
8099;DHT22;4092;47.876;9.372;2023-11-19T13:46:21;10.80;99.90
8099;DHT22;4092;47.876;9.372;2023-11-19T13:48:49;10.80;99.90
8099;DHT22;4092;47.876;9.372;2023-11-19T13:51:16;10.80;99.90
8099;DHT22;4092;47.876;9.372;2023-11-19T13:53:44;10.80;99.90
8099;DHT22;4092;47.876;9.372;2023-11-19T13:56:11;10.80;99.90
8099;DHT22;4092;47.876;9.372;2023-11-19T13:58:38;10.80;99.90
8099;DHT22;4092;47.876;9.372;2023-11-19T14:01:06;10.70;99.90
8099;DHT22;4092;47.876;9.372;2023-11-19T14:03:33;10.70;99.90
8099;DHT22;4092;47.876;9.372;2023-11-19T14:06:02;10.70;99.90
8099;DHT22;4092;47.876;9.372;2023-11-19T14:08:29;10.70;99.90
8099;DHT22;4092;47.876;9.372;2023-11-19T14:10:56;10.80;99.90
8099;DHT22;4092;47.876;9.372;2023-11-19T14:13:24;10.80;99.90
8099;DHT22;4092;47.876;9.372;2023-11-19T14:15:53;10.80;99.90
8099;DHT22;4092;47.876;9.372;2023-11-19T14:18:21;10.70;99.90
8099;DHT22;4092;47.876;9.372;2023-11-19T14:20:48;10.70;99.90
8099;DHT22;4092;47.876;9.372;2023-11-19T14:23:16;10.70;99.90
8099;DHT22;4092;47.876;9.372;2023-11-19T14:25:44;10.70;99.90
8099;DHT22;4092;47.876;9.372;2023-11-19T14:28:11;10.70;99.90
8099;DHT22;4092;47.876;9.372;2023-11-19T14:30:38;10.70;99.90
8099;DHT22;4092;47.876;9.372;2023-11-19T14:33:07;10.80;99.90
8099;DHT22;4092;47.876;9.372;2023-11-19T14:35:34;10.80;99.90
8099;DHT22;4092;47.876;9.372;2023-11-19T14:38:01;10.70;99.90
8099;DHT22;4092;47.876;9.372;2023-11-19T14:40:31;10.80;99.90
8099;DHT22;4092;47.876;9.372;2023-11-19T14:42:58;10.80;99.90
8099;DHT22;4092;47.876;9.372;2023-11-19T14:45:27;10.80;99.90
8099;DHT22;4092;47.876;9.372;2023-11-19T14:47:54;10.80;99.90
8099;DHT22;4092;47.876;9.372;2023-11-19T14:50:24;10.80;99.90
8099;DHT22;4092;47.876;9.372;2023-11-19T14:52:51;10.80;99.90
8099;DHT22;4092;47.876;9.372;2023-11-19T14:55:20;10.80;99.90
8099;DHT22;4092;47.876;9.372;2023-11-19T14:57:48;10.80;99.90
8099;DHT22;4092;47.876;9.372;2023-11-19T15:00:17;10.80;99.90
8099;DHT22;4092;47.876;9.372;2023-11-19T15:02:44;10.80;99.90
8099;DHT22;4092;47.876;9.372;2023-11-19T15:05:11;10.80;99.90
8099;DHT22;4092;47.876;9.372;2023-11-19T15:07:39;10.70;99.90
8099;DHT22;4092;47.876;9.372;2023-11-19T15:10:07;10.70;99.90
8099;DHT22;4092;47.876;9.372;2023-11-19T15:12:35;10.60;99.90
8099;DHT22;4092;47.876;9.372;2023-11-19T15:15:08;10.60;99.90
8099;DHT22;4092;47.876;9.372;2023-11-19T15:17:43;10.60;99.90
8099;DHT22;4092;47.876;9.372;2023-11-19T15:20:11;10.60;99.90
8099;DHT22;4092;47.876;9.372;2023-11-19T15:22:41;10.50;99.90
8099;DHT22;4092;47.876;9.372;2023-11-19T15:25:08;10.50;99.90
8099;DHT22;4092;47.876;9.372;2023-11-19T15:27:36;10.40;99.90
8099;DHT22;4092;47.876;9.372;2023-11-19T15:30:06;10.50;99.90
8099;DHT22;4092;47.876;9.372;2023-11-19T15:32:35;10.50;99.90
8099;DHT22;4092;47.876;9.372;2023-11-19T15:35:02;10.40;99.90
8099;DHT22;4092;47.876;9.372;2023-11-19T15:37:29;10.40;99.90
8099;DHT22;4092;47.876;9.372;2023-11-19T15:39:57;10.40;99.90
8099;DHT22;4092;47.876;9.372;2023-11-19T15:42:25;10.40;99.90
8099;DHT22;4092;47.876;9.372;2023-11-19T15:44:53;10.40;99.90
8099;DHT22;4092;47.876;9.372;2023-11-19T15:47:22;10.40;99.90
8099;DHT22;4092;47.876;9.372;2023-11-19T15:49:49;10.40;99.90
8099;DHT22;4092;47.876;9.372;2023-11-19T15:52:17;10.30;99.90
8099;DHT22;4092;47.876;9.372;2023-11-19T15:54:44;10.30;99.90
8099;DHT22;4092;47.876;9.372;2023-11-19T15:57:13;10.30;99.90
8099;DHT22;4092;47.876;9.372;2023-11-19T15:59:40;10.30;99.90
8099;DHT22;4092;47.876;9.372;2023-11-19T16:02:09;10.20;99.90
8099;DHT22;4092;47.876;9.372;2023-11-19T16:04:39;10.20;99.90
8099;DHT22;4092;47.876;9.372;2023-11-19T16:07:06;10.20;99.90
8099;DHT22;4092;47.876;9.372;2023-11-19T16:09:33;10.20;99.90
8099;DHT22;4092;47.876;9.372;2023-11-19T16:12:00;10.20;99.90
8099;DHT22;4092;47.876;9.372;2023-11-19T16:14:27;10.10;99.90
8099;DHT22;4092;47.876;9.372;2023-11-19T16:16:54;10.10;99.90
8099;DHT22;4092;47.876;9.372;2023-11-19T16:19:21;10.10;99.90
8099;DHT22;4092;47.876;9.372;2023-11-19T16:21:50;10.10;99.90